Time,TemperatureF,DewpointF,PressureIn,WindDirection,WindDirectionDegrees,WindSpeedMPH,WindSpeedGustMPH,Humidity,HourlyPrecipIn,Conditions,Clouds,dailyrainin,SoftwareType,DateUTC
2013-05-20 00:12:00,58.0,58.0,30.04,West,261,0.0,0.0,99,0.00,,,0.00,weatherlink.com 1.10,2013-05-20 04:12:00,
2013-05-20 00:27:00,58.1,58.0,30.04,West,261,0.0,0.0,99,0.00,,,0.00,weatherlink.com 1.10,2013-05-20 04:27:00,
2013-05-20 00:42:00,58.2,58.0,30.05,West,261,0.0,0.0,99,0.00,,,0.00,weatherlink.com 1.10,2013-05-20 04:42:00,
2013-05-20 00:57:00,58.3,58.0,30.05,West,261,0.0,0.0,99,0.00,,,0.00,weatherlink.com 1.10,2013-05-20 04:57:00,
2013-05-20 01:12:00,58.2,58.0,30.05,West,261,0.0,0.0,99,0.00,,,0.00,weatherlink.com 1.10,2013-05-20 05:12:00,
2013-05-20 01:27:00,58.2,58.0,30.05,West,261,1.0,2.0,99,0.00,,,0.00,weatherlink.com 1.10,2013-05-20 05:27:00,
2013-05-20 01:42:00,57.8,58.0,30.04,West,263,0.0,2.0,99,0.00,,,0.00,weatherlink.com 1.10,2013-05-20 05:42:00,
2013-05-20 01:57:00,57.6,57.0,30.04,West,263,0.0,1.0,99,0.00,,,0.00,weatherlink.com 1.10,2013-05-20 05:57:00,
2013-05-20 02:12:00,57.6,57.0,30.04,West,263,0.0,1.0,99,0.00,,,0.00,weatherlink.com 1.10,2013-05-20 06:12:00,
2013-05-20 02:27:00,57.5,57.0,30.04,West,263,0.0,1.0,99,0.00,,,0.00,weatherlink.com 1.10,2013-05-20 06:27:00,
2013-05-20 02:42:00,57.3,57.0,30.04,West,263,0.0,1.0,99,0.00,,,0.00,weatherlink.com 1.10,2013-05-20 06:42:00,
2013-05-20 02:57:00,57.4,57.0,30.05,West,263,0.0,0.0,99,0.00,,,0.00,weatherlink.com 1.10,2013-05-20 06:57:00,
2013-05-20 03:12:00,57.4,57.0,30.05,West,263,1.0,2.0,99,0.00,,,0.00,weatherlink.com 1.10,2013-05-20 07:12:00,
2013-05-20 03:27:00,57.5,57.0,30.05,West,263,0.0,1.0,99,0.00,,,0.00,weatherlink.com 1.10,2013-05-20 07:27:00,
2013-05-20 03:42:00,57.4,57.0,30.06,WSW,258,0.0,2.0,99,0.00,,,0.00,weatherlink.com 1.10,2013-05-20 07:42:00,
2013-05-20 03:57:00,57.5,57.0,30.06,WSW,258,0.0,1.0,99,0.00,,,0.00,weatherlink.com 1.10,2013-05-20 07:57:00,
2013-05-20 04:12:00,57.5,57.0,30.05,WSW,258,1.0,2.0,98,0.00,,,0.00,weatherlink.com 1.10,2013-05-20 08:12:00,
2013-05-20 04:27:00,57.3,57.0,30.05,WSW,258,0.0,1.0,98,0.00,,,0.00,weatherlink.com 1.10,2013-05-20 08:27:00,
2013-05-20 04:42:00,57.3,57.0,30.05,WSW,258,0.0,1.0,98,0.00,,,0.00,weatherlink.com 1.10,2013-05-20 08:42:00,
2013-05-20 04:57:00,57.1,57.0,30.05,WSW,258,0.0,0.0,98,0.00,,,0.00,weatherlink.com 1.10,2013-05-20 08:57:00,
2013-05-20 05:12:00,56.9,56.0,30.05,WSW,257,0.0,3.0,98,0.00,,,0.00,weatherlink.com 1.10,2013-05-20 09:12:00,
2013-05-20 05:27:00,57.1,57.0,30.05,WSW,257,0.0,1.0,98,0.00,,,0.00,weatherlink.com 1.10,2013-05-20 09:27:00,
2013-05-20 05:42:00,56.9,56.0,30.05,WSW,257,0.0,1.0,98,0.00,,,0.00,weatherlink.com 1.10,2013-05-20 09:42:00,
2013-05-20 05:57:00,57.1,57.0,30.05,WSW,257,0.0,3.0,98,0.00,,,0.00,weatherlink.com 1.10,2013-05-20 09:57:00,
2013-05-20 06:12:00,56.8,56.0,30.05,WSW,257,0.0,0.0,98,0.00,,,0.00,weatherlink.com 1.10,2013-05-20 10:12:00,
2013-05-20 06:27:00,56.4,56.0,30.06,WSW,240,0.0,2.0,98,0.00,,,0.00,weatherlink.com 1.10,2013-05-20 10:27:00,
2013-05-20 06:42:00,56.4,56.0,30.06,NNE,18,1.0,2.0,98,0.00,,,0.00,weatherlink.com 1.10,2013-05-20 10:42:00,
2013-05-20 06:57:00,56.9,56.0,30.07,NE,42,0.0,3.0,97,0.00,,,0.00,weatherlink.com 1.10,2013-05-20 10:57:00,
2013-05-20 07:12:00,57.5,57.0,30.07,NE,42,0.0,0.0,97,0.00,,,0.00,weatherlink.com 1.10,2013-05-20 11:12:00,
2013-05-20 07:27:00,57.6,57.0,30.08,NE,42,0.0,1.0,96,0.00,,,0.00,weatherlink.com 1.10,2013-05-20 11:27:00,
2013-05-20 07:42:00,58.2,57.0,30.08,NE,42,0.0,2.0,95,0.00,,,0.00,weatherlink.com 1.10,2013-05-20 11:42:00,
2013-05-20 07:57:00,58.7,58.0,30.08,NE,42,0.0,0.0,96,0.00,,,0.00,weatherlink.com 1.10,2013-05-20 11:57:00,
2013-05-20 08:12:00,58.4,57.0,30.09,NE,42,0.0,1.0,95,0.00,,,0.00,weatherlink.com 1.10,2013-05-20 12:12:00,
2013-05-20 08:27:00,58.5,57.0,30.09,NE,42,0.0,0.0,95,0.00,,,0.00,weatherlink.com 1.10,2013-05-20 12:27:00,
2013-05-20 08:42:00,59.3,56.0,30.10,NE,42,0.0,2.0,89,0.00,,,0.00,weatherlink.com 1.10,2013-05-20 12:42:00,
2013-05-20 08:57:00,60.8,59.0,30.09,NE,42,0.0,2.0,94,0.00,,,0.00,weatherlink.com 1.10,2013-05-20 12:57:00,
2013-05-20 09:12:00,61.5,59.0,30.10,ENE,57,0.0,2.0,92,0.00,,,0.00,weatherlink.com 1.10,2013-05-20 13:12:00,
2013-05-20 09:27:00,61.9,59.0,30.10,ENE,57,0.0,1.0,90,0.00,,,0.00,weatherlink.com 1.10,2013-05-20 13:27:00,
2013-05-20 09:42:00,62.7,58.0,30.11,ENE,58,0.0,3.0,84,0.00,,,0.00,weatherlink.com 1.10,2013-05-20 13:42:00,
2013-05-20 09:58:00,63.8,56.0,30.11,NE,46,0.0,1.0,76,0.00,,,0.00,weatherlink.com 1.10,2013-05-20 13:58:00,
2013-05-20 10:13:00,64.9,61.0,30.11,NE,46,0.0,2.0,86,0.00,,,0.00,weatherlink.com 1.10,2013-05-20 14:13:00,
2013-05-20 10:28:00,64.8,58.0,30.11,NE,46,1.0,2.0,78,0.00,,,0.00,weatherlink.com 1.10,2013-05-20 14:28:00,
2013-05-20 10:43:00,65.7,58.0,30.11,NE,46,1.0,2.0,76,0.00,,,0.00,weatherlink.com 1.10,2013-05-20 14:43:00,
2013-05-20 10:58:00,66.5,62.0,30.11,NNE,17,0.0,3.0,85,0.00,,,0.00,weatherlink.com 1.10,2013-05-20 14:58:00,
2013-05-20 11:13:00,66.6,63.0,30.11,West,273,2.0,3.0,87,0.00,,,0.00,weatherlink.com 1.10,2013-05-20 15:13:00,
2013-05-20 11:28:00,66.7,62.0,30.11,West,275,2.0,4.0,84,0.00,,,0.00,weatherlink.com 1.10,2013-05-20 15:28:00,
2013-05-20 11:43:00,67.2,62.0,30.11,WNW,292,1.0,5.0,83,0.00,,,0.00,weatherlink.com 1.10,2013-05-20 15:43:00,
2013-05-20 11:58:00,68.1,61.0,30.10,WSW,242,4.0,4.0,78,0.00,,,0.00,weatherlink.com 1.10,2013-05-20 15:58:00,
2013-05-20 12:13:00,69.4,63.0,30.10,WNW,294,4.0,6.0,79,0.00,,,0.00,weatherlink.com 1.10,2013-05-20 16:13:00,
2013-05-20 12:28:00,69.6,62.0,30.09,WSW,243,3.0,5.0,77,0.00,,,0.00,weatherlink.com 1.10,2013-05-20 16:28:00,
2013-05-20 12:43:00,70.3,62.0,30.09,WNW,294,0.0,4.0,75,0.00,,,0.00,weatherlink.com 1.10,2013-05-20 16:43:00,
2013-05-20 12:58:00,70.5,62.0,30.09,SW,236,2.0,5.0,74,0.00,,,0.00,weatherlink.com 1.10,2013-05-20 16:58:00,
2013-05-20 13:13:00,71.6,63.0,30.08,NE,34,3.0,5.0,74,0.00,,,0.00,weatherlink.com 1.10,2013-05-20 17:13:00,
2013-05-20 13:28:00,72.1,63.0,30.08,WSW,250,2.0,4.0,73,0.00,,,0.00,weatherlink.com 1.10,2013-05-20 17:28:00,
2013-05-20 13:43:00,73.7,61.0,30.08,West,263,3.0,5.0,64,0.00,,,0.00,weatherlink.com 1.10,2013-05-20 17:43:00,
2013-05-20 13:58:00,74.6,62.0,30.08,NW,306,2.0,5.0,66,0.00,,,0.00,weatherlink.com 1.10,2013-05-20 17:58:00,
2013-05-20 14:13:00,75.2,59.0,30.07,SW,236,2.0,6.0,57,0.00,,,0.00,weatherlink.com 1.10,2013-05-20 18:13:00,
2013-05-20 14:28:00,74.9,61.0,30.07,SW,231,5.0,7.0,62,0.00,,,0.00,weatherlink.com 1.10,2013-05-20 18:28:00,
2013-05-20 14:43:00,75.6,61.0,30.07,WSW,239,2.0,9.0,60,0.00,,,0.00,weatherlink.com 1.10,2013-05-20 18:43:00,
2013-05-20 14:58:00,76.1,61.0,30.06,West,277,2.0,9.0,60,0.00,,,0.00,weatherlink.com 1.10,2013-05-20 18:58:00,
2013-05-20 15:13:00,77.1,64.0,30.04,West,278,5.0,10.0,65,0.00,,,0.00,weatherlink.com 1.10,2013-05-20 19:13:00,
2013-05-20 15:28:00,76.6,61.0,30.04,WNW,286,3.0,8.0,59,0.00,,,0.00,weatherlink.com 1.10,2013-05-20 19:28:00,
2013-05-20 15:43:00,74.9,61.0,30.03,West,269,8.0,9.0,62,0.00,,,0.00,weatherlink.com 1.10,2013-05-20 19:43:00,
2013-05-20 15:50:00,73.6,64.0,30.03,WNW,292,4.0,6.0,72,0.00,,,0.00,Wunderground v.1.15,2013-05-20 19:50:00,
2013-05-20 15:55:00,73.0,62.2,30.03,SSW,210,4.0,4.0,69,0.00,,,0.00,Wunderground v.1.15,2013-05-20 19:55:00,
2013-05-20 16:00:00,73.1,62.7,30.03,NW,311,4.0,4.0,70,0.00,,,0.00,Wunderground v.1.15,2013-05-20 20:00:00,
2013-05-20 16:10:00,73.7,63.7,30.03,West,279,3.0,3.0,71,0.00,,,0.00,Wunderground v.1.15,2013-05-20 20:10:00,
2013-05-20 16:15:00,74.3,61.3,30.03,SW,235,4.0,4.0,64,0.00,,,0.00,Wunderground v.1.15,2013-05-20 20:15:00,
2013-05-20 16:20:00,74.7,62.6,30.03,SW,233,3.0,4.0,66,0.00,,,0.00,Wunderground v.1.15,2013-05-20 20:20:00,
2013-05-20 16:29:00,74.9,64.0,30.03,WSW,250,3.0,7.0,68,0.00,,,0.00,weatherlink.com 1.10,2013-05-20 20:29:00,
2013-05-20 16:35:00,75.5,62.5,30.03,West,263,2.0,3.0,64,0.00,,,0.00,Wunderground v.1.15,2013-05-20 20:35:00,
2013-05-20 16:40:00,75.8,64.1,30.03,WNW,299,2.0,2.0,67,0.00,,,0.00,Wunderground v.1.15,2013-05-20 20:40:00,
2013-05-20 16:45:00,75.7,62.7,30.02,SW,220,2.0,3.0,64,0.00,,,0.00,Wunderground v.1.15,2013-05-20 20:45:00,
2013-05-20 16:55:00,75.5,61.6,30.02,West,275,2.0,3.0,62,0.00,,,0.00,Wunderground v.1.15,2013-05-20 20:55:00,
2013-05-20 17:00:00,76.4,63.8,30.02,North,5,2.0,3.0,65,0.00,,,0.00,Wunderground v.1.15,2013-05-20 21:00:00,
2013-05-20 17:05:00,76.6,62.1,30.02,WNW,292,3.0,3.0,61,0.00,,,0.00,Wunderground v.1.15,2013-05-20 21:05:00,
2013-05-20 17:10:00,76.1,62.1,30.02,SW,229,4.0,4.0,62,0.00,,,0.00,Wunderground v.1.15,2013-05-20 21:10:00,
2013-05-20 17:20:00,75.8,64.9,30.02,West,267,3.0,3.0,69,0.00,,,0.00,Wunderground v.1.15,2013-05-20 21:20:00,
2013-05-20 17:25:00,75.3,63.6,30.02,WSW,242,2.0,3.0,67,0.00,,,0.00,Wunderground v.1.15,2013-05-20 21:25:00,
2013-05-20 17:30:00,74.9,63.6,30.02,West,264,3.0,4.0,68,0.00,,,0.00,Wunderground v.1.15,2013-05-20 21:30:00,
2013-05-20 17:40:00,74.1,64.5,30.02,West,269,5.0,6.0,72,0.00,,,0.00,Wunderground v.1.15,2013-05-20 21:40:00,
2013-05-20 17:45:00,73.2,64.4,30.02,WSW,252,5.0,6.0,74,0.00,,,0.00,Wunderground v.1.15,2013-05-20 21:45:00,
2013-05-20 17:55:00,73.0,66.1,30.02,SW,236,4.0,5.0,79,0.00,,,0.00,Wunderground v.1.15,2013-05-20 21:55:00,
2013-05-20 18:00:00,73.0,66.0,30.01,WSW,255,10.0,12.0,79,0.00,,,0.00,weatherlink.com 1.10,2013-05-20 22:00:00,
2013-05-20 18:10:00,72.4,65.9,30.01,NW,320,4.0,7.0,80,0.00,,,0.00,Wunderground v.1.15,2013-05-20 22:10:00,
2013-05-20 18:15:00,72.4,65.9,30.01,NW,309,4.0,7.0,80,0.00,,,0.00,Wunderground v.1.15,2013-05-20 22:15:00,
2013-05-20 18:20:00,72.0,65.8,30.00,North,360,4.0,4.0,81,0.00,,,0.00,Wunderground v.1.15,2013-05-20 22:20:00,
2013-05-20 18:30:00,71.0,65.6,30.01,NNE,26,1.0,1.0,83,0.00,,,0.00,Wunderground v.1.15,2013-05-20 22:30:00,
2013-05-20 18:35:00,70.6,64.8,30.01,SE,146,1.0,1.0,82,0.00,,,0.00,Wunderground v.1.15,2013-05-20 22:35:00,
2013-05-20 18:40:00,70.2,64.4,30.01,SE,146,1.0,1.0,82,0.00,,,0.00,Wunderground v.1.15,2013-05-20 22:40:00,
2013-05-20 18:46:00,69.7,64.0,30.02,SE,146,0.0,3.0,82,0.00,,,0.00,weatherlink.com 1.10,2013-05-20 22:46:00,
2013-05-20 18:55:00,68.7,63.7,30.02,SE,146,0.0,0.0,84,0.00,,,0.00,Wunderground v.1.15,2013-05-20 22:55:00,
2013-05-20 19:00:00,68.2,63.0,30.02,SE,146,0.0,1.0,83,0.00,,,0.00,weatherlink.com 1.10,2013-05-20 23:00:00,
2013-05-20 19:10:00,67.6,62.3,30.01,SSE,159,1.0,1.0,83,0.00,,,0.01,Wunderground v.1.15,2013-05-20 23:10:00,
2013-05-20 19:15:00,67.4,62.4,30.01,SW,217,1.0,3.0,84,0.00,,,0.01,Wunderground v.1.15,2013-05-20 23:15:00,
2013-05-20 19:25:00,67.0,61.3,30.00,SW,215,2.0,2.0,82,0.00,,,0.01,Wunderground v.1.15,2013-05-20 23:25:00,
2013-05-20 19:30:00,66.9,61.6,30.00,WSW,240,2.0,2.0,83,0.00,,,0.01,Wunderground v.1.15,2013-05-20 23:30:00,
2013-05-20 19:35:00,67.2,62.9,30.00,WSW,240,1.0,2.0,86,0.00,,,0.01,Wunderground v.1.15,2013-05-20 23:35:00,
2013-05-20 19:45:00,67.9,61.5,30.00,West,263,1.0,2.0,80,0.00,,,0.01,Wunderground v.1.15,2013-05-20 23:45:00,
2013-05-20 19:50:00,67.9,61.9,30.01,West,263,1.0,1.0,81,0.00,,,0.01,Wunderground v.1.15,2013-05-20 23:50:00,
2013-05-20 20:00:00,67.7,62.0,30.01,West,263,1.0,1.0,82,0.00,,,0.01,Wunderground v.1.15,2013-05-21 00:00:00,
2013-05-20 20:10:00,67.0,61.3,30.01,West,263,1.0,1.0,82,0.00,,,0.01,Wunderground v.1.15,2013-05-21 00:10:00,
2013-05-20 20:16:00,66.8,62.0,30.00,West,263,1.0,2.0,84,0.00,,,0.01,weatherlink.com 1.10,2013-05-21 00:16:00,
2013-05-20 20:25:00,66.2,61.2,30.00,West,263,1.0,2.0,84,0.00,,,0.01,Wunderground v.1.15,2013-05-21 00:25:00,
2013-05-20 20:30:00,65.8,61.2,30.00,West,263,1.0,1.0,85,0.00,,,0.01,Wunderground v.1.15,2013-05-21 00:30:00,
2013-05-20 20:40:00,65.3,61.0,30.00,West,263,0.0,0.0,86,0.00,,,0.01,Wunderground v.1.15,2013-05-21 00:40:00,
2013-05-20 20:45:00,65.2,61.6,30.00,West,263,0.0,0.0,88,0.00,,,0.01,Wunderground v.1.15,2013-05-21 00:45:00,
2013-05-20 20:55:00,65.2,58.2,30.00,West,263,0.0,0.0,78,0.00,,,0.01,Wunderground v.1.15,2013-05-21 00:55:00,
2013-05-20 21:00:00,65.4,58.4,30.01,West,263,0.0,0.0,78,0.00,,,0.01,Wunderground v.1.15,2013-05-21 01:00:00,
2013-05-20 21:10:00,65.7,58.3,30.01,SW,223,0.0,1.0,77,0.00,,,0.01,Wunderground v.1.15,2013-05-21 01:10:00,
2013-05-20 21:15:00,65.8,58.7,30.01,SSW,194,0.0,1.0,78,0.00,,,0.01,Wunderground v.1.15,2013-05-21 01:15:00,
2013-05-20 21:20:00,65.8,59.1,30.01,South,186,0.0,0.0,79,0.00,,,0.01,Wunderground v.1.15,2013-05-21 01:20:00,
2013-05-20 21:32:00,65.6,60.0,30.01,West,260,1.0,2.0,81,0.00,,,0.01,weatherlink.com 1.10,2013-05-21 01:32:00,
2013-05-20 21:47:00,65.2,60.0,30.01,NE,54,2.0,4.0,83,0.00,,,0.01,weatherlink.com 1.10,2013-05-21 01:47:00,
2013-05-20 22:02:00,64.7,61.0,30.02,WSW,250,1.0,3.0,86,0.00,,,0.01,weatherlink.com 1.10,2013-05-21 02:02:00,
2013-05-20 22:17:00,63.9,60.0,30.02,North,5,2.0,3.0,87,0.00,,,0.01,weatherlink.com 1.10,2013-05-21 02:17:00,
2013-05-20 22:32:00,63.5,61.0,30.03,WNW,300,0.0,5.0,90,0.00,,,0.01,weatherlink.com 1.10,2013-05-21 02:32:00,
2013-05-20 22:47:00,63.4,61.0,30.03,NNE,15,2.0,4.0,91,0.00,,,0.01,weatherlink.com 1.10,2013-05-21 02:47:00,
2013-05-20 23:02:00,63.2,61.0,30.02,NE,38,0.0,3.0,93,0.00,,,0.01,weatherlink.com 1.10,2013-05-21 03:02:00,
2013-05-20 23:17:00,63.1,61.0,30.02,North,5,1.0,4.0,94,0.00,,,0.01,weatherlink.com 1.10,2013-05-21 03:17:00,
2013-05-20 23:32:00,63.1,62.0,30.02,North,355,1.0,3.0,95,0.00,,,0.01,weatherlink.com 1.10,2013-05-21 03:32:00,
2013-05-20 23:47:00,63.1,62.0,30.02,NW,320,1.0,4.0,95,0.00,,,0.01,weatherlink.com 1.10,2013-05-21 03:47:00,